Time;durP1;ratioP1;P1;durP2;ratioP2;P2;SDS_P1;SDS_P2;PMS_P1;PMS_P2;Temp;Humidity;BMP_temperature;BMP_pressure;BME280_temperature;BME280_humidity;BME280_pressure;Samples;Min_cycle;Max_cycle;Signal;HPM_P1;HPM_P2
2021/01/26 00:00:04;;;;;;;20.50;3.83;;;;;;;;;;5074137;28;20127;-65
2021/01/26 00:02:49;;;;;;;12.55;2.05;;;;;;;;;;5089340;23;20025;-64
2021/01/26 00:05:35;;;;;;;24.10;2.88;;;;;;;;;;5004291;28;20451;-63
2021/01/26 00:08:20;;;;;;;18.42;2.70;;;;;;;;;;5013990;28;20045;-63
2021/01/26 00:11:05;;;;;;;19.30;2.55;;;;;;;;;;4994612;28;20544;-63
2021/01/26 00:13:51;;;;;;;14.68;2.05;;;;;;;;;;4994294;28;20496;-63
2021/01/26 00:16:36;;;;;;;11.85;2.38;;;;;;;;;;4994389;28;20058;-63
2021/01/26 00:19:22;;;;;;;15.13;2.63;;;;;;;;;;4994339;28;20560;-63
2021/01/26 00:22:07;;;;;;;9.90;1.58;;;;;;;;;;4993738;28;20093;-64
2021/01/26 00:24:53;;;;;;;11.65;2.03;;;;;;;;;;4994276;28;20053;-64
2021/01/26 00:27:38;;;;;;;9.50;1.75;;;;;;;;;;4994148;28;20046;-63
2021/01/26 00:30:25;;;;;;;13.65;2.53;;;;;;;;;;4993233;28;20050;-63
2021/01/26 00:33:20;;;;;;;15.32;2.10;;;;;;;;;;4993206;28;20069;-63
2021/01/26 00:36:05;;;;;;;10.70;1.65;;;;;;;;;;4993905;28;20428;-64
2021/01/26 00:38:50;;;;;;;12.82;1.48;;;;;;;;;;4994017;28;20054;-64
2021/01/26 00:41:36;;;;;;;11.38;1.85;;;;;;;;;;4994213;28;20057;-64
2021/01/26 00:44:21;;;;;;;20.30;3.40;;;;;;;;;;4993736;28;20521;-64
2021/01/26 00:47:07;;;;;;;13.30;1.98;;;;;;;;;;4992931;28;20054;-64
2021/01/26 00:49:52;;;;;;;11.93;2.08;;;;;;;;;;4993816;28;20049;-64
2021/01/26 00:52:38;;;;;;;13.57;1.98;;;;;;;;;;4992295;28;20121;-64
2021/01/26 00:55:30;;;;;;;12.27;1.20;;;;;;;;;;5005846;28;20050;-64
2021/01/26 00:58:16;;;;;;;17.13;1.63;;;;;;;;;;5006617;28;20590;-64
2021/01/26 01:01:05;;;;;;;14.25;1.77;;;;;;;;;;5006130;28;20047;-64
2021/01/26 01:03:53;;;;;;;6.70;1.45;;;;;;;;;;4992357;28;20046;-64
2021/01/26 01:06:38;;;;;;;12.48;1.33;;;;;;;;;;4993282;28;20128;-64
2021/01/26 01:09:23;;;;;;;13.73;1.75;;;;;;;;;;4993420;28;20484;-64
2021/01/26 01:12:09;;;;;;;10.35;1.80;;;;;;;;;;4993164;28;20049;-64
2021/01/26 01:14:55;;;;;;;9.80;1.67;;;;;;;;;;4993470;28;20105;-64
2021/01/26 01:17:40;;;;;;;13.23;1.35;;;;;;;;;;4993307;28;20054;-64
2021/01/26 01:20:26;;;;;;;16.27;2.28;;;;;;;;;;4993268;28;20050;-64
2021/01/26 01:23:11;;;;;;;10.85;1.70;;;;;;;;;;4993106;28;20431;-64
2021/01/26 01:26:00;;;;;;;6.40;1.27;;;;;;;;;;4993225;28;20107;-64
2021/01/26 01:28:45;;;;;;;4.50;1.10;;;;;;;;;;4993112;28;20511;-64
2021/01/26 01:31:30;;;;;;;12.27;1.58;;;;;;;;;;4992966;28;20069;-64
2021/01/26 01:34:16;;;;;;;9.48;1.40;;;;;;;;;;4992953;28;20054;-64
2021/01/26 01:37:01;;;;;;;6.82;1.38;;;;;;;;;;4992855;28;20053;-64
2021/01/26 01:39:47;;;;;;;5.88;1.73;;;;;;;;;;4993168;28;20126;-64
2021/01/26 01:42:33;;;;;;;6.07;1.40;;;;;;;;;;4992549;28;20183;-64
2021/01/26 01:45:19;;;;;;;4.78;1.30;;;;;;;;;;4992754;28;20050;-64
2021/01/26 01:48:09;;;;;;;5.80;1.73;;;;;;;;;;4992878;28;20568;-64
2021/01/26 01:51:03;;;;;;;5.32;1.75;;;;;;;;;;5005692;28;20501;-64
2021/01/26 01:53:58;;;;;;;5.13;2.28;;;;;;;;;;4992368;28;20133;-64
2021/01/26 01:56:48;;;;;;;5.30;2.35;;;;;;;;;;4992806;28;20046;-64
2021/01/26 01:59:38;;;;;;;5.20;2.30;;;;;;;;;;4992776;28;20181;-64
2021/01/26 02:02:23;;;;;;;5.43;2.47;;;;;;;;;;4992642;28;20046;-64
2021/01/26 02:05:09;;;;;;;7.80;3.30;;;;;;;;;;4991663;28;20050;-64
2021/01/26 02:07:55;;;;;;;6.47;3.22;;;;;;;;;;4992577;28;20050;-64
2021/01/26 02:10:40;;;;;;;7.70;3.97;;;;;;;;;;4992893;28;20047;-64
2021/01/26 02:13:26;;;;;;;9.60;5.25;;;;;;;;;;4992364;28;20046;-64
2021/01/26 02:16:12;;;;;;;12.85;5.22;;;;;;;;;;4992559;28;20133;-64
2021/01/26 02:19:00;;;;;;;12.95;5.88;;;;;;;;;;4991833;28;20054;-64
2021/01/26 02:22:04;;;;;;;18.00;6.47;;;;;;;;;;4992724;28;20057;-64
2021/01/26 02:25:13;;;;;;;14.68;6.25;;;;;;;;;;4992195;28;20080;-64
2021/01/26 02:28:12;;;;;;;21.15;8.68;;;;;;;;;;5005220;28;20101;-64
2021/01/26 02:31:07;;;;;;;21.27;9.05;;;;;;;;;;5005321;28;20051;-64
2021/01/26 02:34:11;;;;;;;46.85;12.50;;;;;;;;;;4992512;28;20065;-64
2021/01/26 02:37:18;;;;;;;39.42;14.10;;;;;;;;;;4972816;28;20563;-64
2021/01/26 02:40:11;;;;;;;29.25;12.02;;;;;;;;;;4973084;28;20133;-64
2021/01/26 02:43:03;;;;;;;47.92;15.00;;;;;;;;;;4987568;28;20049;-64
2021/01/26 02:46:00;;;;;;;41.28;13.68;;;;;;;;;;4992184;28;20050;-64
2021/01/26 02:48:48;;;;;;;34.53;13.52;;;;;;;;;;4992529;28;20417;-64
2021/01/26 02:51:38;;;;;;;53.65;15.18;;;;;;;;;;4991915;28;20489;-64
2021/01/26 02:54:30;;;;;;;40.72;13.20;;;;;;;;;;4992348;28;20054;-64
2021/01/26 02:57:18;;;;;;;34.92;12.82;;;;;;;;;;4991230;28;20039;-64
2021/01/26 03:00:16;;;;;;;36.83;15.65;;;;;;;;;;4991260;28;20046;-64
2021/01/26 03:03:11;;;;;;;34.33;12.63;;;;;;;;;;4991888;28;20050;-63
2021/01/26 03:06:16;;;;;;;30.88;12.77;;;;;;;;;;5004851;28;20448;-64
2021/01/26 03:09:04;;;;;;;26.00;9.52;;;;;;;;;;4992311;28;20042;-63
2021/01/26 03:11:53;;;;;;;38.85;14.10;;;;;;;;;;5008274;28;20082;-64
2021/01/26 03:14:53;;;;;;;38.53;14.63;;;;;;;;;;4975160;28;20061;-64
2021/01/26 03:17:41;;;;;;;35.45;14.57;;;;;;;;;;4974998;28;20097;-64
2021/01/26 03:20:34;;;;;;;22.30;10.73;;;;;;;;;;4974303;28;20417;-64
2021/01/26 03:23:21;;;;;;;31.60;16.17;;;;;;;;;;4982721;28;20046;-63
2021/01/26 03:26:09;;;;;;;28.00;13.27;;;;;;;;;;4995290;28;20046;-64
2021/01/26 03:28:58;;;;;;;26.02;12.35;;;;;;;;;;4994411;28;20137;-63
2021/01/26 03:31:44;;;;;;;28.05;13.77;;;;;;;;;;4980510;28;20073;-64
2021/01/26 03:34:29;;;;;;;39.38;17.23;;;;;;;;;;4994041;28;20053;-64
2021/01/26 03:37:14;;;;;;;29.02;13.55;;;;;;;;;;4995069;28;20042;-64
2021/01/26 03:40:00;;;;;;;22.83;11.98;;;;;;;;;;4995077;28;20547;-64
2021/01/26 03:42:45;;;;;;;28.92;14.90;;;;;;;;;;4994924;28;20077;-64
2021/01/26 03:45:31;;;;;;;23.92;11.98;;;;;;;;;;4994936;28;20527;-64
2021/01/26 03:48:24;;;;;;;29.50;15.02;;;;;;;;;;4993812;28;20050;-64
2021/01/26 03:51:10;;;;;;;23.90;13.70;;;;;;;;;;4993872;28;20128;-64
2021/01/26 03:54:05;;;;;;;23.40;12.57;;;;;;;;;;4993751;28;20042;-63
2021/01/26 03:57:09;;;;;;;24.85;12.02;;;;;;;;;;5007660;28;20046;-63
2021/01/26 04:00:13;;;;;;;25.52;14.35;;;;;;;;;;4994789;28;20476;-64
2021/01/26 04:03:17;;;;;;;23.90;12.00;;;;;;;;;;4994352;28;20042;-64
2021/01/26 04:06:11;;;;;;;18.30;10.88;;;;;;;;;;4994339;28;20074;-64
2021/01/26 04:08:57;;;;;;;17.48;11.38;;;;;;;;;;4993533;28;20401;-64
2021/01/26 04:11:46;;;;;;;15.18;9.57;;;;;;;;;;4993428;28;20523;-64
2021/01/26 04:14:32;;;;;;;17.90;10.57;;;;;;;;;;4993242;28;20038;-64
2021/01/26 04:17:20;;;;;;;14.85;10.05;;;;;;;;;;5007140;28;20189;-64
2021/01/26 04:20:07;;;;;;;18.33;10.82;;;;;;;;;;5007158;28;20080;-64
2021/01/26 04:22:53;;;;;;;18.15;11.43;;;;;;;;;;5007080;28;20046;-64
2021/01/26 04:25:39;;;;;;;15.27;9.88;;;;;;;;;;4993983;28;20043;-64
2021/01/26 04:28:34;;;;;;;18.38;10.10;;;;;;;;;;4994249;28;20515;-64
2021/01/26 04:31:21;;;;;;;17.52;10.38;;;;;;;;;;4993095;28;20043;-64
2021/01/26 04:34:06;;;;;;;20.65;12.48;;;;;;;;;;4994012;28;20046;-64
2021/01/26 04:36:51;;;;;;;14.88;10.10;;;;;;;;;;4993900;28;20082;-64
2021/01/26 04:39:36;;;;;;;22.10;11.70;;;;;;;;;;4994157;28;20050;-64
2021/01/26 04:42:22;;;;;;;19.05;10.60;;;;;;;;;;4994001;28;20069;-64
2021/01/26 04:45:08;;;;;;;16.00;10.70;;;;;;;;;;5006748;28;20053;-64
2021/01/26 04:48:00;;;;;;;19.80;10.75;;;;;;;;;;4974624;28;20074;-64
2021/01/26 04:50:55;;;;;;;17.90;9.85;;;;;;;;;;4974291;28;20217;-64
2021/01/26 04:53:49;;;;;;;16.98;10.65;;;;;;;;;;4973248;28;20070;-64
2021/01/26 04:56:55;;;;;;;17.92;10.93;;;;;;;;;;4981960;28;20054;-64
2021/01/26 04:59:50;;;;;;;18.05;9.68;;;;;;;;;;4985741;28;20046;-64
2021/01/26 05:02:38;;;;;;;14.23;10.02;;;;;;;;;;4992479;28;20057;-64
2021/01/26 05:05:24;;;;;;;17.70;10.50;;;;;;;;;;4992609;28;20078;-64
2021/01/26 05:08:10;;;;;;;15.32;10.02;;;;;;;;;;4992332;28;20121;-64
2021/01/26 05:10:58;;;;;;;16.17;9.32;;;;;;;;;;4992381;28;20489;-64
2021/01/26 05:13:44;;;;;;;18.92;10.63;;;;;;;;;;4992301;28;20046;-64
2021/01/26 05:16:30;;;;;;;14.55;9.93;;;;;;;;;;4993159;28;20053;-64
2021/01/26 05:19:18;;;;;;;14.40;10.00;;;;;;;;;;4993372;28;20108;-64
2021/01/26 05:22:09;;;;;;;18.65;11.05;;;;;;;;;;4993242;28;20050;-64
2021/01/26 05:24:56;;;;;;;16.75;10.60;;;;;;;;;;4992894;28;20489;-64
2021/01/26 05:27:43;;;;;;;16.60;10.43;;;;;;;;;;4993097;28;20053;-64
2021/01/26 05:30:32;;;;;;;16.23;10.38;;;;;;;;;;4993152;28;20559;-63
2021/01/26 05:33:18;;;;;;;20.02;10.52;;;;;;;;;;4991914;28;20074;-64
2021/01/26 05:36:03;;;;;;;18.20;10.38;;;;;;;;;;4992752;28;20046;-64
2021/01/26 05:38:50;;;;;;;17.40;9.32;;;;;;;;;;4992973;28;20039;-63
2021/01/26 05:41:35;;;;;;;18.08;9.93;;;;;;;;;;4992882;28;20049;-64
2021/01/26 05:44:20;;;;;;;21.02;11.18;;;;;;;;;;4993140;28;20046;-64
2021/01/26 05:47:32;;;;;;;20.23;10.02;;;;;;;;;;4998328;28;20057;-63
2021/01/26 05:50:24;;;;;;;16.98;9.65;;;;;;;;;;4992924;28;20062;-64
2021/01/26 05:53:14;;;;;;;20.70;11.73;;;;;;;;;;4992926;28;20054;-64
2021/01/26 05:56:10;;;;;;;18.95;10.77;;;;;;;;;;4991743;28;20297;-64
2021/01/26 05:58:56;;;;;;;19.83;11.48;;;;;;;;;;4992750;28;20050;-64
2021/01/26 06:01:41;;;;;;;19.20;10.38;;;;;;;;;;4991339;28;20409;-64
2021/01/26 06:04:29;;;;;;;17.17;9.73;;;;;;;;;;5044504;23;20050;-65
2021/01/26 06:07:21;;;;;;;16.20;9.63;;;;;;;;;;5018476;28;20043;-66
2021/01/26 06:10:17;;;;;;;16.92;9.75;;;;;;;;;;4992631;28;20042;-65
2021/01/26 06:13:03;;;;;;;19.08;9.93;;;;;;;;;;4992466;28;20042;-65
2021/01/26 06:15:48;;;;;;;20.27;11.13;;;;;;;;;;4992604;28;20048;-65
2021/01/26 06:18:33;;;;;;;22.42;11.57;;;;;;;;;;5008708;28;20081;-65
2021/01/26 06:21:19;;;;;;;22.42;10.63;;;;;;;;;;5011989;28;20485;-65
2021/01/26 06:24:14;;;;;;;24.73;11.70;;;;;;;;;;5012027;28;20129;-65
2021/01/26 06:27:02;;;;;;;22.52;11.45;;;;;;;;;;5011946;28;20046;-66
2021/01/26 06:30:22;;;;;;;27.40;12.57;;;;;;;;;;4992379;28;20521;-66
2021/01/26 06:33:29;;;;;;;28.55;12.98;;;;;;;;;;5009650;28;20053;-66
2021/01/26 06:36:19;;;;;;;29.70;13.13;;;;;;;;;;5005012;28;20058;-66
2021/01/26 06:39:24;;;;;;;25.85;12.23;;;;;;;;;;5019377;28;20057;-66
2021/01/26 06:42:15;;;;;;;24.65;12.38;;;;;;;;;;5011781;28;20054;-66
2021/01/26 06:45:06;;;;;;;28.08;13.13;;;;;;;;;;5013520;28;20412;-65
2021/01/26 06:48:14;;;;;;;23.67;12.65;;;;;;;;;;5015329;28;20458;-66
2021/01/26 06:51:22;;;;;;;24.55;12.85;;;;;;;;;;5015413;28;20103;-66
2021/01/26 06:54:13;;;;;;;24.73;12.07;;;;;;;;;;5015419;28;20045;-66
2021/01/26 06:57:04;;;;;;;24.50;12.57;;;;;;;;;;5015364;28;20045;-66
2021/01/26 07:00:21;;;;;;;25.20;12.48;;;;;;;;;;5015458;28;20508;-66
2021/01/26 07:03:45;;;;;;;23.38;11.20;;;;;;;;;;5014293;28;20045;-66
2021/01/26 07:06:34;;;;;;;20.48;10.60;;;;;;;;;;5015137;28;20603;-66
2021/01/26 07:09:25;;;;;;;20.70;10.80;;;;;;;;;;5015170;28;20046;-66
2021/01/26 07:12:28;;;;;;;18.98;10.30;;;;;;;;;;5015154;28;20125;-66
2021/01/26 07:15:26;;;;;;;21.90;10.82;;;;;;;;;;4995667;28;20046;-66
2021/01/26 07:18:11;;;;;;;18.92;10.38;;;;;;;;;;5008004;28;20065;-66
2021/01/26 07:21:35;;;;;;;17.00;9.60;;;;;;;;;;4995405;28;20054;-66
2021/01/26 07:24:23;;;;;;;15.75;9.30;;;;;;;;;;5015970;28;20096;-66
2021/01/26 07:27:12;;;;;;;18.70;10.27;;;;;;;;;;5032216;28;20049;-66
2021/01/26 07:29:59;;;;;;;21.77;10.98;;;;;;;;;;5016628;28;20180;-66
2021/01/26 07:32:52;;;;;;;19.45;10.40;;;;;;;;;;4995205;28;20046;-66
2021/01/26 07:35:53;;;;;;;21.52;11.23;;;;;;;;;;5009252;28;20052;-66
2021/01/26 07:38:40;;;;;;;22.70;10.88;;;;;;;;;;5034608;28;20607;-65
2021/01/26 07:41:39;;;;;;;20.55;11.45;;;;;;;;;;5022526;28;20057;-65
2021/01/26 07:44:34;;;;;;;22.27;11.82;;;;;;;;;;5013849;28;20057;-66
2021/01/26 07:47:20;;;;;;;23.10;11.35;;;;;;;;;;4995129;28;20081;-65
2021/01/26 07:50:32;;;;;;;25.13;11.93;;;;;;;;;;5010292;28;20057;-66
2021/01/26 07:53:43;;;;;;;27.33;12.85;;;;;;;;;;5014532;28;20125;-66
2021/01/26 07:56:37;;;;;;;24.63;12.00;;;;;;;;;;5014272;28;20136;-66
2021/01/26 07:59:24;;;;;;;27.98;12.02;;;;;;;;;;5014576;28;20064;-65
2021/01/26 08:02:28;;;;;;;29.50;12.63;;;;;;;;;;5013258;28;20042;-66
2021/01/26 08:05:17;;;;;;;31.67;13.82;;;;;;;;;;5013049;28;20124;-66
2021/01/26 08:08:03;;;;;;;33.28;13.07;;;;;;;;;;5013719;28;20038;-66
2021/01/26 08:10:49;;;;;;;32.47;13.02;;;;;;;;;;5013893;28;20041;-66
2021/01/26 08:13:35;;;;;;;35.15;12.27;;;;;;;;;;5013137;28;20128;-66
2021/01/26 08:16:21;;;;;;;33.28;12.63;;;;;;;;;;5012849;28;20049;-66
2021/01/26 08:19:17;;;;;;;27.13;12.38;;;;;;;;;;5012931;28;20046;-66
2021/01/26 08:22:35;;;;;;;31.88;13.02;;;;;;;;;;5012677;28;20115;-66
2021/01/26 08:25:30;;;;;;;35.90;13.25;;;;;;;;;;5004806;28;20050;-66
2021/01/26 08:28:35;;;;;;;27.23;11.95;;;;;;;;;;5013804;28;20045;-65
2021/01/26 08:31:32;;;;;;;27.17;12.10;;;;;;;;;;5012523;28;20054;-66
2021/01/26 08:34:23;;;;;;;38.45;13.40;;;;;;;;;;5013804;28;20049;-66
2021/01/26 08:37:11;;;;;;;24.55;10.35;;;;;;;;;;5013623;28;20053;-66
2021/01/26 08:39:57;;;;;;;24.80;10.15;;;;;;;;;;5013377;28;20046;-66
2021/01/26 08:42:42;;;;;;;20.27;10.77;;;;;;;;;;5013365;28;20549;-66
2021/01/26 08:45:28;;;;;;;20.10;9.68;;;;;;;;;;5013580;28;20082;-66
2021/01/26 08:48:16;;;;;;;21.75;10.60;;;;;;;;;;5012165;28;20050;-66
2021/01/26 08:51:10;;;;;;;20.02;9.45;;;;;;;;;;5013244;28;20089;-65
2021/01/26 08:53:55;;;;;;;19.90;9.32;;;;;;;;;;5012325;28;20049;-67
2021/01/26 08:56:40;;;;;;;18.50;9.15;;;;;;;;;;5012351;28;20054;-66
2021/01/26 08:59:30;;;;;;;19.73;9.65;;;;;;;;;;5011993;28;20049;-66
2021/01/26 09:02:34;;;;;;;19.33;9.20;;;;;;;;;;5013048;28;20136;-66
2021/01/26 09:05:37;;;;;;;13.98;8.23;;;;;;;;;;5013337;28;20050;-66
2021/01/26 09:08:22;;;;;;;;;;;;;;;;;;5012557;28;20050;-66
2021/01/26 09:11:08;;;;;;;15.02;8.05;;;;;;;;;;5012929;28;20294;-67
2021/01/26 09:13:54;;;;;;;15.88;8.60;;;;;;;;;;5012911;28;20042;-65
2021/01/26 09:16:41;;;;;;;18.38;9.55;;;;;;;;;;5011742;28;20133;-66
2021/01/26 09:19:28;;;;;;;15.43;7.88;;;;;;;;;;5011789;28;20054;-66
2021/01/26 09:22:14;;;;;;;14.65;7.28;;;;;;;;;;5012760;28;20042;-66
2021/01/26 09:25:16;;;;;;;11.88;7.05;;;;;;;;;;5012580;28;20045;-66
2021/01/26 09:28:03;;;;;;;12.67;7.27;;;;;;;;;;4993281;28;20062;-67
2021/01/26 09:30:48;;;;;;;13.00;7.60;;;;;;;;;;4991928;28;20479;-66
2021/01/26 09:33:34;;;;;;;9.88;6.80;;;;;;;;;;5005125;28;20046;-66
2021/01/26 09:36:20;;;;;;;12.85;7.07;;;;;;;;;;4999263;28;20147;-66
2021/01/26 09:39:25;;;;;;;14.18;7.18;;;;;;;;;;5001462;28;20050;-66
2021/01/26 09:42:23;;;;;;;11.25;6.38;;;;;;;;;;5003613;28;20050;-66
2021/01/26 09:45:10;;;;;;;12.05;7.00;;;;;;;;;;5002898;28;20050;-66
2021/01/26 09:47:56;;;;;;;15.45;7.85;;;;;;;;;;5002402;28;20058;-65
2021/01/26 09:50:41;;;;;;;15.23;7.50;;;;;;;;;;5016007;28;20046;-66
2021/01/26 09:53:26;;;;;;;10.93;6.82;;;;;;;;;;5003629;28;20043;-66
2021/01/26 09:56:12;;;;;;;10.35;6.82;;;;;;;;;;5000337;28;20073;-66
2021/01/26 09:58:57;;;;;;;10.13;6.40;;;;;;;;;;5000416;28;20045;-66
2021/01/26 10:01:44;;;;;;;10.73;6.18;;;;;;;;;;5001688;28;20147;-66
2021/01/26 10:04:29;;;;;;;14.27;7.25;;;;;;;;;;5000609;28;20046;-66
2021/01/26 10:07:14;;;;;;;9.07;6.13;;;;;;;;;;4999960;28;20433;-66
2021/01/26 10:10:19;;;;;;;8.25;5.82;;;;;;;;;;5001579;28;20038;-66
2021/01/26 10:13:23;;;;;;;12.88;6.55;;;;;;;;;;5000688;28;20057;-66
2021/01/26 10:16:27;;;;;;;10.70;6.78;;;;;;;;;;5000564;28;20045;-66
2021/01/26 10:19:22;;;;;;;7.32;6.15;;;;;;;;;;5002022;28;20492;-66
2021/01/26 10:22:13;;;;;;;8.65;5.35;;;;;;;;;;5003740;28;20053;-66
2021/01/26 10:25:06;;;;;;;7.72;5.03;;;;;;;;;;5002101;28;20046;-66
2021/01/26 10:27:51;;;;;;;8.48;5.47;;;;;;;;;;5002654;28;20046;-66
2021/01/26 10:30:44;;;;;;;7.18;4.85;;;;;;;;;;5004239;28;20104;-65
2021/01/26 10:33:36;;;;;;;7.67;4.70;;;;;;;;;;5003667;28;20042;-65
2021/01/26 10:36:24;;;;;;;9.30;5.03;;;;;;;;;;5002831;28;20050;-65
2021/01/26 10:39:29;;;;;;;5.60;4.35;;;;;;;;;;5002885;28;20064;-66
2021/01/26 10:42:18;;;;;;;7.20;5.13;;;;;;;;;;5003455;28;20034;-66
2021/01/26 10:45:04;;;;;;;8.48;4.78;;;;;;;;;;5003142;28;20038;-66
2021/01/26 10:47:50;;;;;;;7.25;4.57;;;;;;;;;;5002564;28;20137;-66
2021/01/26 10:50:35;;;;;;;10.43;3.92;;;;;;;;;;5002488;28;20042;-66
2021/01/26 10:53:46;;;;;;;10.23;4.80;;;;;;;;;;5004043;28;20082;-66
2021/01/26 10:56:31;;;;;;;4.97;3.72;;;;;;;;;;5002783;28;20121;-65
2021/01/26 10:59:17;;;;;;;9.95;3.97;;;;;;;;;;5002297;28;20046;-65
2021/01/26 11:02:11;;;;;;;3.83;2.85;;;;;;;;;;5003461;28;20429;-66
2021/01/26 11:04:57;;;;;;;7.53;3.53;;;;;;;;;;5006038;28;20038;-66
2021/01/26 11:07:42;;;;;;;5.93;3.65;;;;;;;;;;5005963;28;20038;-65
2021/01/26 11:10:28;;;;;;;5.72;2.70;;;;;;;;;;5006711;28;20521;-66
2021/01/26 11:13:13;;;;;;;10.73;2.92;;;;;;;;;;5006524;28;20046;-66
2021/01/26 11:15:59;;;;;;;6.38;3.70;;;;;;;;;;5008143;28;20049;-66
2021/01/26 11:18:44;;;;;;;7.40;3.30;;;;;;;;;;5004709;28;20056;-67
2021/01/26 11:21:31;;;;;;;7.13;2.90;;;;;;;;;;5005396;28;20509;-66
2021/01/26 11:24:16;;;;;;;3.63;2.08;;;;;;;;;;5007431;28;20049;-66
2021/01/26 11:27:01;;;;;;;4.70;2.53;;;;;;;;;;5007963;28;20096;-66
2021/01/26 11:29:49;;;;;;;4.47;2.38;;;;;;;;;;5007386;28;20200;-66
2021/01/26 11:32:35;;;;;;;4.90;2.08;;;;;;;;;;5003920;28;20038;-66
2021/01/26 11:35:23;;;;;;;3.00;2.25;;;;;;;;;;5002731;28;20043;-66
2021/01/26 11:38:09;;;;;;;2.88;1.70;;;;;;;;;;5002230;28;20049;-66
2021/01/26 11:40:56;;;;;;;3.70;1.75;;;;;;;;;;5001567;28;20161;-66
2021/01/26 11:43:40;;;;;;;5.97;1.92;;;;;;;;;;5002012;28;20042;-66
2021/01/26 11:46:26;;;;;;;3.60;1.60;;;;;;;;;;5001553;28;20417;-66
2021/01/26 11:49:11;;;;;;;6.28;2.03;;;;;;;;;;5002181;28;20042;-66
2021/01/26 11:51:59;;;;;;;3.63;1.55;;;;;;;;;;5001802;28;20041;-65
2021/01/26 11:54:45;;;;;;;4.22;1.88;;;;;;;;;;5001291;28;20038;-66
2021/01/26 11:57:30;;;;;;;3.88;1.33;;;;;;;;;;5001316;28;20050;-66
2021/01/26 12:00:17;;;;;;;5.45;3.10;;;;;;;;;;5001353;28;20050;-66
2021/01/26 12:03:02;;;;;;;8.00;1.85;;;;;;;;;;5001537;28;20058;-66
2021/01/26 12:05:48;;;;;;;5.47;1.60;;;;;;;;;;5018159;22;20066;-67
2021/01/26 12:08:33;;;;;;;6.10;1.80;;;;;;;;;;5016414;28;20044;-67
2021/01/26 12:11:19;;;;;;;4.53;1.55;;;;;;;;;;5001171;28;20508;-67
2021/01/26 12:14:04;;;;;;;3.90;1.30;;;;;;;;;;5002009;28;20042;-67
2021/01/26 12:16:50;;;;;;;4.63;1.15;;;;;;;;;;5000855;28;20058;-67
2021/01/26 12:19:35;;;;;;;3.53;1.13;;;;;;;;;;5001195;28;20500;-67
2021/01/26 12:22:20;;;;;;;5.82;0.93;;;;;;;;;;5000431;28;20081;-67
2021/01/26 12:25:06;;;;;;;4.88;1.10;;;;;;;;;;5002067;28;20117;-67
2021/01/26 12:27:51;;;;;;;3.78;0.80;;;;;;;;;;5001471;28;20041;-67
2021/01/26 12:30:36;;;;;;;4.63;0.80;;;;;;;;;;5001734;28;20042;-67
2021/01/26 12:33:22;;;;;;;3.97;1.10;;;;;;;;;;5000543;28;20046;-67
2021/01/26 12:36:08;;;;;;;3.70;0.80;;;;;;;;;;4999964;28;20042;-67
2021/01/26 12:38:53;;;;;;;3.40;1.40;;;;;;;;;;5001365;28;20042;-67
2021/01/26 12:41:38;;;;;;;6.10;1.92;;;;;;;;;;5000034;28;20043;-66
2021/01/26 12:44:24;;;;;;;8.13;1.38;;;;;;;;;;5001352;28;20049;-66
2021/01/26 12:47:11;;;;;;;6.80;1.40;;;;;;;;;;5006698;28;20396;-66
2021/01/26 12:49:56;;;;;;;5.40;0.45;;;;;;;;;;5006555;28;20034;-66
2021/01/26 12:52:42;;;;;;;3.55;0.70;;;;;;;;;;5007270;28;20042;-66
2021/01/26 12:55:27;;;;;;;3.20;0.70;;;;;;;;;;5006499;28;20038;-66
2021/01/26 12:58:13;;;;;;;2.22;0.80;;;;;;;;;;4999661;28;20133;-67
2021/01/26 13:00:58;;;;;;;2.67;0.50;;;;;;;;;;5004108;28;20495;-66
2021/01/26 13:03:43;;;;;;;1.88;0.40;;;;;;;;;;5003975;28;20112;-66
2021/01/26 13:06:29;;;;;;;1.77;0.77;;;;;;;;;;5003577;28;20449;-66
2021/01/26 13:09:14;;;;;;;3.13;0.65;;;;;;;;;;5003532;28;20459;-66
2021/01/26 13:11:59;;;;;;;6.90;1.63;;;;;;;;;;5000888;28;20033;-66
2021/01/26 13:14:45;;;;;;;4.40;1.30;;;;;;;;;;5000816;28;20117;-66
2021/01/26 13:17:31;;;;;;;4.10;1.00;;;;;;;;;;5000118;28;20440;-66
2021/01/26 13:20:16;;;;;;;8.48;1.25;;;;;;;;;;5000903;28;20120;-67
2021/01/26 13:23:01;;;;;;;12.90;2.08;;;;;;;;;;4998754;28;20042;-66
2021/01/26 13:25:46;;;;;;;10.32;2.17;;;;;;;;;;5000525;28;20137;-66
2021/01/26 13:28:32;;;;;;;5.80;1.20;;;;;;;;;;5000403;28;20489;-66
2021/01/26 13:31:17;;;;;;;3.45;1.00;;;;;;;;;;4999423;28;20125;-66
2021/01/26 13:34:03;;;;;;;6.93;1.58;;;;;;;;;;4999701;28;20488;-66
2021/01/26 13:36:48;;;;;;;6.03;1.40;;;;;;;;;;4999708;28;20420;-66
2021/01/26 13:39:34;;;;;;;5.60;1.25;;;;;;;;;;5000161;28;20037;-66
2021/01/26 13:42:19;;;;;;;6.07;1.00;;;;;;;;;;4999292;28;20660;-66
2021/01/26 13:45:08;;;;;;;8.63;1.13;;;;;;;;;;4999645;28;20046;-66
2021/01/26 13:47:53;;;;;;;6.28;1.85;;;;;;;;;;4999011;28;20412;-67
2021/01/26 13:50:38;;;;;;;6.38;1.33;;;;;;;;;;5000025;28;20038;-66
2021/01/26 13:53:25;;;;;;;6.00;1.15;;;;;;;;;;4999169;28;20050;-66
2021/01/26 13:56:11;;;;;;;7.45;0.82;;;;;;;;;;4999436;28;20038;-67
2021/01/26 13:58:56;;;;;;;5.90;0.70;;;;;;;;;;5000628;28;20041;-67
2021/01/26 14:01:41;;;;;;;4.53;0.65;;;;;;;;;;5001669;28;20506;-67
2021/01/26 14:04:27;;;;;;;4.82;1.02;;;;;;;;;;4999087;28;20050;-68
2021/01/26 14:07:13;;;;;;;3.17;0.85;;;;;;;;;;5000420;28;20050;-67
2021/01/26 14:09:58;;;;;;;4.38;0.77;;;;;;;;;;5000405;28;20408;-67
2021/01/26 14:12:43;;;;;;;3.55;0.70;;;;;;;;;;4999715;28;20069;-67
2021/01/26 14:15:29;;;;;;;5.22;1.02;;;;;;;;;;4998680;28;20037;-67
2021/01/26 14:18:15;;;;;;;3.00;0.90;;;;;;;;;;4998327;28;20135;-67
2021/01/26 14:21:00;;;;;;;2.50;0.70;;;;;;;;;;5001440;28;20042;-67
2021/01/26 14:23:45;;;;;;;5.90;1.08;;;;;;;;;;5001527;28;20154;-67
2021/01/26 14:26:31;;;;;;;8.27;0.98;;;;;;;;;;5000335;28;20046;-67
2021/01/26 14:29:16;;;;;;;5.88;0.90;;;;;;;;;;5002957;28;20038;-67
2021/01/26 14:32:01;;;;;;;3.95;1.33;;;;;;;;;;5002030;28;20073;-67
2021/01/26 14:34:47;;;;;;;8.40;1.00;;;;;;;;;;5002219;28;20038;-67
2021/01/26 14:37:33;;;;;;;5.00;0.95;;;;;;;;;;5000109;28;20139;-67
2021/01/26 14:40:18;;;;;;;3.78;0.80;;;;;;;;;;5004740;28;20061;-70
2021/01/26 14:43:03;;;;;;;6.03;1.23;;;;;;;;;;5004208;28;20046;-67
2021/01/26 14:45:49;;;;;;;4.47;1.10;;;;;;;;;;5001580;28;20070;-67
2021/01/26 14:48:34;;;;;;;3.67;0.75;;;;;;;;;;5002576;28;20042;-67
2021/01/26 14:51:20;;;;;;;14.30;1.90;;;;;;;;;;5001506;28;20050;-67
2021/01/26 14:54:05;;;;;;;2.50;0.80;;;;;;;;;;5001399;28;20117;-67
2021/01/26 14:56:54;;;;;;;5.38;1.00;;;;;;;;;;5010644;28;20043;-67
2021/01/26 14:59:39;;;;;;;6.30;1.17;;;;;;;;;;5001249;28;20049;-67
2021/01/26 15:02:25;;;;;;;6.75;1.27;;;;;;;;;;5002311;28;20527;-67
2021/01/26 15:05:10;;;;;;;4.25;1.05;;;;;;;;;;5015994;28;20046;-67
2021/01/26 15:07:56;;;;;;;5.35;0.85;;;;;;;;;;5005430;28;20038;-67
2021/01/26 15:10:41;;;;;;;10.32;1.35;;;;;;;;;;5005407;28;20050;-67
2021/01/26 15:13:48;;;;;;;2.80;0.90;;;;;;;;;;5003797;28;20484;-67
2021/01/26 15:16:35;;;;;;;4.60;0.60;;;;;;;;;;5005570;28;20046;-67
2021/01/26 15:19:20;;;;;;;4.85;0.70;;;;;;;;;;5002850;28;20041;-67
2021/01/26 15:22:06;;;;;;;3.22;0.50;;;;;;;;;;5006554;28;20069;-67
2021/01/26 15:24:51;;;;;;;8.23;0.88;;;;;;;;;;5002321;28;20045;-67
2021/01/26 15:27:36;;;;;;;6.43;0.80;;;;;;;;;;5013016;28;20042;-67
2021/01/26 15:30:22;;;;;;;5.97;1.05;;;;;;;;;;5003268;28;20042;-67
2021/01/26 15:33:07;;;;;;;4.07;0.82;;;;;;;;;;5027492;28;20046;-67
2021/01/26 15:35:53;;;;;;;6.68;0.90;;;;;;;;;;5016870;28;20105;-67
2021/01/26 15:38:39;;;;;;;7.80;1.00;;;;;;;;;;5025918;28;20451;-67
2021/01/26 15:41:24;;;;;;;4.68;0.60;;;;;;;;;;5028421;28;20041;-67
2021/01/26 15:44:09;;;;;;;8.95;1.98;;;;;;;;;;4999673;28;20091;-67
2021/01/26 15:46:54;;;;;;;7.10;0.80;;;;;;;;;;5006003;28;20034;-67
2021/01/26 15:49:40;;;;;;;8.15;1.17;;;;;;;;;;5005657;28;20046;-67
2021/01/26 15:52:25;;;;;;;7.53;1.25;;;;;;;;;;5006438;28;20042;-67
2021/01/26 15:55:11;;;;;;;6.63;0.88;;;;;;;;;;5008972;28;20113;-67
2021/01/26 15:57:56;;;;;;;6.90;1.20;;;;;;;;;;4999736;28;20073;-67
2021/01/26 16:00:41;;;;;;;5.90;0.90;;;;;;;;;;5004022;28;20046;-68
2021/01/26 16:03:27;;;;;;;7.10;0.82;;;;;;;;;;5005112;28;20050;-67
2021/01/26 16:06:13;;;;;;;9.18;1.27;;;;;;;;;;5004625;28;20046;-67
2021/01/26 16:08:58;;;;;;;4.47;0.57;;;;;;;;;;5011145;28;20038;-67
2021/01/26 16:11:43;;;;;;;5.55;1.08;;;;;;;;;;5012416;28;20042;-67
2021/01/26 16:14:29;;;;;;;12.65;2.60;;;;;;;;;;5025783;28;20121;-67
2021/01/26 16:17:14;;;;;;;6.50;1.90;;;;;;;;;;5001718;28;99072;-67
2021/01/26 16:19:59;;;;;;;6.97;2.17;;;;;;;;;;5029273;28;20049;-68
2021/01/26 16:22:47;;;;;;;9.45;2.83;;;;;;;;;;5008990;28;20066;-67
2021/01/26 16:25:32;;;;;;;11.73;3.65;;;;;;;;;;5004514;28;20042;-67
2021/01/26 16:28:18;;;;;;;11.38;3.30;;;;;;;;;;5005826;28;20046;-67
2021/01/26 16:31:03;;;;;;;12.82;3.92;;;;;;;;;;5005969;28;20556;-67
2021/01/26 16:33:48;;;;;;;10.95;3.97;;;;;;;;;;5029056;28;20088;-67
2021/01/26 16:36:34;;;;;;;10.38;3.45;;;;;;;;;;5025605;28;20050;-66
2021/01/26 16:39:19;;;;;;;9.65;3.67;;;;;;;;;;5012166;28;20396;-66